< Typhoon 201712 2017 Season Typhoon 201714 >
Typhoon 201713 (HATO)
General InformationTrack Information on Google MapsDetailed Wind InformationForecast History on Google MapsAccess Analytics MapList of All Images || NewsDisaster Info.WeblogTrackbackTyphoon FrontTwiphoonTyphoon Now!Typhoon ImaginationJMA Disaster Info. XMLResourceGoogle EarthGE AnimationAtom FeedGeoJSON
Detalied Best Track (Time Zone = UTC)
Year Month Day Hour Lat. Long. Pressure (hPa) Wind (kt) Class Image Chart
2017 8 19 12 19.1 130.1 1006 0 2 Image Chart
2017 8 19 18 19.4 129.1 1004 0 2 Image Chart
2017 8 20 00 19.5 128.3 1004 0 2 Image Chart
2017 8 20 06 19.6 127.6 1002 0 2 Image Chart
2017 8 20 12 19.7 126.9 998 35 3 Image Chart
2017 8 20 18 19.9 126.2 996 35 3 Image Chart
2017 8 21 00 20.2 125.4 994 35 3 Image Chart
2017 8 21 06 20.3 124.3 994 35 3 Image Chart
2017 8 21 12 20.6 123.2 990 40 3 Image Chart
2017 8 21 18 20.5 121.5 990 40 3 Image Chart
2017 8 22 00 20.5 119.8 985 45 3 Image Chart
2017 8 22 06 20.5 118.8 975 60 4 Image Chart
2017 8 22 12 20.6 117.3 975 60 4 Image Chart
2017 8 22 18 21.1 116.0 970 65 5 Image Chart
2017 8 23 00 21.6 114.4 965 75 5 Image Chart
2017 8 23 06 22.3 112.8 965 75 5 Image Chart
2017 8 23 12 22.7 111.0 985 50 4 Image Chart
2017 8 23 18 23.5 109.1 994 40 3 Image Chart
2017 8 24 00 23.9 107.5 996 35 3 Image Chart
2017 8 24 06 23.9 106.1 996 35 3 Image Chart
2017 8 24 12 23.8 104.5 998 0 2 Image Chart
2017 8 24 18 23.8 101.9 1000 0 2 Image Chart
2017 8 25 00 23.6 99.5 1002 0 2 Image Chart
Japan Meteorological Agency Best Track Data | Correction Date : 2017-10-10
< Typhoon 201712 2017 Season Typhoon 201714 >

Help